Time;durP1;ratioP1;P1;durP2;ratioP2;P2;SDS_P1;SDS_P2;PMS_P1;PMS_P2;Temp;Humidity;BMP_temperature;BMP_pressure;BME280_temperature;BME280_humidity;BME280_pressure;Samples;Min_cycle;Max_cycle;Signal;HPM_P1;HPM_P2
2022/01/03 00:00:40;;;;;;;0.38;0.38;;;;;22.10;99951.00;;;;5076470;28;20056;-76
2022/01/03 00:03:13;;;;;;;0.80;0.65;;;;;22.10;99949.00;;;;5078721;28;20075;-74
2022/01/03 00:05:43;;;;;;;1.50;0.10;;;;;22.10;99947.00;;;;5078055;28;20044;-75
2022/01/03 00:08:12;;;;;;;0.10;0.10;;;;;22.00;99934.00;;;;5086874;28;20047;-75
2022/01/03 00:10:42;;;;;;;0.00;0.00;;;;;21.90;99956.00;;;;5089150;28;20051;-75
2022/01/03 00:13:11;;;;;;;0.00;0.00;;;;;22.00;99947.00;;;;5089770;28;20059;-78
2022/01/03 00:15:41;;;;;;;0.00;0.00;;;;;22.30;99964.00;;;;5089139;28;20048;-77
2022/01/03 00:18:10;;;;;;;1.20;0.85;;;;;22.40;99971.00;;;;5087799;28;20079;-76
2022/01/03 00:20:41;;;;;;;0.00;0.00;;;;;22.50;99970.00;;;;5088030;28;20410;-72
2022/01/03 00:23:12;;;;;;;0.00;0.00;;;;;22.40;99975.00;;;;5075661;28;20048;-76
2022/01/03 00:25:48;;;;;;;0.35;0.35;;;;;22.50;99957.00;;;;5068053;28;20060;-74
2022/01/03 00:28:31;;;;;;;1.33;0.82;;;;;22.50;99973.00;;;;5050635;28;20048;-78
2022/01/03 00:31:04;;;;;;;1.17;0.90;;;;;22.50;99963.00;;;;5068298;28;20036;-77
2022/01/03 00:33:33;;;;;;;1.00;0.55;;;;;22.40;99948.00;;;;5068512;28;20043;-77
2022/01/03 00:36:05;;;;;;;0.03;0.03;;;;;22.30;99951.00;;;;5069315;28;20090;-76
2022/01/03 00:38:35;;;;;;;1.52;0.95;;;;;22.50;99972.00;;;;5066726;28;20545;-79
2022/01/03 00:41:05;;;;;;;0.00;0.00;;;;;22.60;99966.00;;;;5067074;28;20053;-76
2022/01/03 00:43:35;;;;;;;0.00;0.00;;;;;22.60;99952.00;;;;5050329;28;20060;-76
2022/01/03 00:46:05;;;;;;;0.45;0.40;;;;;22.80;99962.00;;;;5068411;28;20048;-76
2022/01/03 00:48:36;;;;;;;0.00;0.00;;;;;22.60;99968.00;;;;5068412;28;20052;-77
2022/01/03 00:51:06;;;;;;;0.00;0.00;;;;;22.50;99969.00;;;;5068078;28;20478;-76
2022/01/03 00:53:35;;;;;;;0.65;0.65;;;;;22.60;99953.00;;;;5066657;28;20769;-75
2022/01/03 00:56:13;;;;;;;1.75;0.70;;;;;22.80;99957.00;;;;5066235;28;20404;-77
2022/01/03 00:59:07;;;;;;;0.00;0.00;;;;;23.20;99963.00;;;;5066467;28;20067;-78
2022/01/03 01:01:43;;;;;;;0.10;0.10;;;;;23.00;99967.00;;;;5067094;28;20052;-78
2022/01/03 01:04:17;;;;;;;0.00;0.00;;;;;22.70;99956.00;;;;5066080;28;20037;-75
2022/01/03 01:06:56;;;;;;;0.00;0.00;;;;;22.60;99946.00;;;;5067511;28;20055;-77
2022/01/03 01:09:28;;;;;;;0.00;0.00;;;;;22.50;99961.00;;;;5068674;28;20521;-78
2022/01/03 01:12:00;;;;;;;0.17;0.17;;;;;22.40;99954.00;;;;5066780;28;20055;-77
2022/01/03 01:14:37;;;;;;;0.32;0.17;;;;;22.40;99960.00;;;;5066597;28;20055;-76
2022/01/03 01:17:07;;;;;;;3.43;0.40;;;;;22.40;99952.00;;;;5066778;28;20055;-78
2022/01/03 01:19:38;;;;;;;1.88;1.23;;;;;22.40;99956.00;;;;5067885;28;20043;-76
2022/01/03 01:22:07;;;;;;;0.05;0.05;;;;;22.40;99968.00;;;;5066648;28;20044;-74
2022/01/03 01:24:48;;;;;;;0.40;0.40;;;;;22.30;99946.00;;;;5066428;28;20534;-76
2022/01/03 01:30:08;;;;;;;0.55;0.55;;;;;22.20;99967.00;;;;5067489;28;20071;-74
2022/01/03 01:32:42;;;;;;;0.45;0.13;;;;;22.20;99945.00;;;;5066927;28;20453;-77
2022/01/03 01:35:13;;;;;;;0.00;0.00;;;;;22.10;99953.00;;;;5068183;28;20376;-74
2022/01/03 01:37:43;;;;;;;;;;;;;22.00;99952.00;;;;5065960;28;20059;-77
2022/01/03 01:40:14;;;;;;;0.03;0.03;;;;;22.00;99961.00;;;;5066333;28;20942;-75
2022/01/03 01:42:46;;;;;;;0.00;0.00;;;;;22.00;99964.00;;;;5066132;28;20056;-76
2022/01/03 01:45:19;;;;;;;0.10;0.10;;;;;22.00;99959.00;;;;5049785;28;20061;-75
2022/01/03 01:47:51;;;;;;;0.25;0.25;;;;;22.00;99960.00;;;;5065816;28;20052;-78
2022/01/03 01:50:25;;;;;;;0.00;0.00;;;;;22.00;99954.00;;;;5049766;28;20053;-75
2022/01/03 01:52:56;;;;;;;0.55;0.38;;;;;22.00;99956.00;;;;5066021;28;20048;-75
2022/01/03 01:55:26;;;;;;;0.00;0.00;;;;;22.00;99952.00;;;;5065718;28;20067;-77
2022/01/03 01:58:12;;;;;;;0.00;0.00;;;;;22.00;99956.00;;;;5067557;28;20051;-77
2022/01/03 02:00:56;;;;;;;0.10;0.10;;;;;21.90;99950.00;;;;5065309;28;20048;-77
2022/01/03 02:04:25;;;;;;;0.38;0.38;;;;;21.90;99950.00;;;;5065659;28;20479;-74
2022/01/03 02:06:58;;;;;;;0.95;0.47;;;;;21.90;99943.00;;;;4987955;28;20148;-77
2022/01/03 02:09:52;;;;;;;0.40;0.20;;;;;21.90;99939.00;;;;5064318;28;20050;-77
2022/01/03 02:12:27;;;;;;;0.40;0.35;;;;;21.80;99947.00;;;;5065770;28;20040;-72
2022/01/03 02:14:59;;;;;;;0.25;0.25;;;;;22.00;99941.00;;;;5065031;28;20717;-77
2022/01/03 02:17:29;;;;;;;0.95;0.95;;;;;22.30;99928.00;;;;5065305;28;20052;-79
2022/01/03 02:20:12;;;;;;;0.00;0.00;;;;;22.40;99920.00;;;;5065149;28;20135;-77
2022/01/03 02:22:43;;;;;;;0.10;0.10;;;;;22.30;99931.00;;;;5065852;28;20048;-74
2022/01/03 02:25:18;;;;;;;0.00;0.00;;;;;22.10;99910.00;;;;5065393;28;20057;-76
2022/01/03 02:27:51;;;;;;;0.73;0.73;;;;;22.00;99910.00;;;;5065228;28;20892;-76
2022/01/03 02:30:25;;;;;;;0.00;0.00;;;;;21.90;99917.00;;;;5065397;28;20118;-77
2022/01/03 02:32:55;;;;;;;0.00;0.00;;;;;21.90;99907.00;;;;5066854;28;20064;-77
2022/01/03 02:35:25;;;;;;;0.52;0.52;;;;;21.80;99916.00;;;;5065334;28;20106;-76
2022/01/03 02:37:55;;;;;;;0.52;0.30;;;;;21.80;99914.00;;;;5065253;28;20113;-78
2022/01/03 02:40:25;;;;;;;0.63;0.63;;;;;21.80;99903.00;;;;5064728;28;20080;-76
2022/01/03 02:42:56;;;;;;;0.00;0.00;;;;;21.80;99920.00;;;;5064985;28;20056;-76
2022/01/03 02:45:28;;;;;;;1.67;0.20;;;;;21.90;99913.00;;;;5065454;28;20140;-75
2022/01/03 02:48:03;;;;;;;1.45;0.88;;;;;21.80;99928.00;;;;5064805;28;20082;-76
2022/01/03 02:50:35;;;;;;;0.32;0.32;;;;;21.80;99933.00;;;;5066029;28;20055;-77
2022/01/03 02:53:05;;;;;;;0.80;0.65;;;;;21.80;99928.00;;;;5065033;28;20510;-75
2022/01/03 02:55:36;;;;;;;0.10;0.10;;;;;21.80;99936.00;;;;5065347;28;20052;-78
2022/01/03 02:58:07;;;;;;;0.15;0.15;;;;;21.80;99930.00;;;;5065063;28;20044;-78
2022/01/03 03:00:48;;;;;;;0.00;0.00;;;;;21.80;99938.00;;;;5064599;28;20045;-75
2022/01/03 03:03:34;;;;;;;0.00;0.00;;;;;21.80;99943.00;;;;5064741;28;20499;-78
2022/01/03 03:06:05;;;;;;;0.00;0.00;;;;;21.80;99935.00;;;;5066362;28;20101;-77
2022/01/03 03:08:36;;;;;;;0.03;0.03;;;;;21.80;99940.00;;;;5064884;28;20553;-76
2022/01/03 03:11:06;;;;;;;0.00;0.00;;;;;21.80;99950.00;;;;5063912;28;20052;-79
2022/01/03 03:13:37;;;;;;;0.00;0.00;;;;;21.90;99946.00;;;;5064211;28;20080;-75
2022/01/03 03:16:07;;;;;;;0.00;0.00;;;;;22.10;99963.00;;;;5064431;28;20063;-74
2022/01/03 03:18:37;;;;;;;0.00;0.00;;;;;22.20;99949.00;;;;5067612;28;20047;-79
2022/01/03 03:21:07;;;;;;;0.00;0.00;;;;;22.50;99977.00;;;;5068816;28;20054;-75
2022/01/03 03:23:36;;;;;;;0.00;0.00;;;;;22.60;99974.00;;;;5068368;28;20052;-77
2022/01/03 03:26:06;;;;;;;0.00;0.00;;;;;22.60;99986.00;;;;5068939;28;20053;-75
2022/01/03 03:28:36;;;;;;;0.00;0.00;;;;;22.60;100002.00;;;;5070373;28;20055;-74
2022/01/03 03:31:06;;;;;;;0.83;0.47;;;;;22.60;99988.00;;;;5068144;28;20050;-77
2022/01/03 03:33:39;;;;;;;0.08;0.08;;;;;22.70;100000.00;;;;5068668;28;20480;-76
2022/01/03 03:36:09;;;;;;;0.25;0.25;;;;;22.80;100005.00;;;;5068340;28;20135;-76
2022/01/03 03:38:39;;;;;;;;;;;;;22.80;100010.00;;;;5052731;28;20053;-76
2022/01/03 03:41:13;;;;;;;0.43;0.32;;;;;22.70;100001.00;;;;5068353;28;20014;-76
2022/01/03 03:43:48;;;;;;;0.00;0.00;;;;;22.70;100015.00;;;;5068220;28;20045;-76
2022/01/03 03:46:18;;;;;;;0.00;0.00;;;;;22.70;99983.00;;;;5068482;28;20052;-77
2022/01/03 03:48:48;;;;;;;0.00;0.00;;;;;22.60;99989.00;;;;5068031;28;20051;-76
2022/01/03 03:51:22;;;;;;;0.00;0.00;;;;;22.50;99975.00;;;;5052564;28;20154;-75
2022/01/03 03:53:54;;;;;;;1.65;0.43;;;;;22.50;99974.00;;;;5068251;28;20048;-74
2022/01/03 03:56:26;;;;;;;0.00;0.00;;;;;22.40;99984.00;;;;5068239;28;20048;-77
2022/01/03 03:58:56;;;;;;;0.00;0.00;;;;;22.40;99994.00;;;;5068004;28;20044;-75
2022/01/03 04:01:25;;;;;;;0.00;0.00;;;;;22.40;99977.00;;;;5067216;28;20054;-78
2022/01/03 04:03:57;;;;;;;0.00;0.00;;;;;22.40;99983.00;;;;5068204;28;20048;-78
2022/01/03 04:06:28;;;;;;;0.00;0.00;;;;;22.40;99968.00;;;;5069165;28;20055;-77
2022/01/03 04:09:00;;;;;;;0.43;0.25;;;;;22.30;99969.00;;;;5051414;28;20048;-73
2022/01/03 04:11:30;;;;;;;;;;;;;22.40;99980.00;;;;5067969;28;20048;-78
2022/01/03 04:14:01;;;;;;;0.00;0.00;;;;;22.40;99987.00;;;;5067317;28;19924;-76
2022/01/03 04:16:32;;;;;;;0.00;0.00;;;;;22.40;99962.00;;;;5067529;28;20499;-76
2022/01/03 04:19:01;;;;;;;0.10;0.10;;;;;22.50;99968.00;;;;5067631;28;20513;-79
2022/01/03 04:21:31;;;;;;;0.05;0.05;;;;;22.40;99954.00;;;;5068759;28;20427;-75
2022/01/03 04:24:01;;;;;;;0.00;0.00;;;;;22.50;99973.00;;;;5068318;28;20045;-74
2022/01/03 04:26:32;;;;;;;0.43;0.43;;;;;22.50;99961.00;;;;5066964;28;20378;-75
2022/01/03 04:29:02;;;;;;;0.30;0.20;;;;;22.50;99956.00;;;;5050683;28;20469;-78
2022/01/03 04:31:32;;;;;;;0.00;0.00;;;;;22.50;99950.00;;;;5068671;28;20102;-78
2022/01/03 04:34:02;;;;;;;0.00;0.00;;;;;22.40;99962.00;;;;5067225;28;20139;-77
2022/01/03 04:36:34;;;;;;;0.00;0.00;;;;;22.30;99952.00;;;;5068310;28;20523;-76
2022/01/03 04:39:05;;;;;;;0.00;0.00;;;;;22.20;99951.00;;;;5068752;28;20388;-78
2022/01/03 04:41:35;;;;;;;0.00;0.00;;;;;22.20;99937.00;;;;5068743;28;20090;-78
2022/01/03 04:44:07;;;;;;;0.03;0.03;;;;;22.20;99928.00;;;;5067225;28;20044;-78
2022/01/03 04:46:38;;;;;;;0.30;0.30;;;;;22.20;99941.00;;;;5067179;28;20385;-77
2022/01/03 04:49:08;;;;;;;0.10;0.10;;;;;22.10;99926.00;;;;5068461;28;20415;-76
2022/01/03 04:51:39;;;;;;;;;;;;;22.10;99940.00;;;;5067442;28;20140;-78
2022/01/03 04:54:09;;;;;;;0.05;0.05;;;;;22.00;99936.00;;;;5068160;28;19947;-74
2022/01/03 04:56:39;;;;;;;0.10;0.10;;;;;21.90;99932.00;;;;5050850;28;20106;-77
2022/01/03 04:59:10;;;;;;;0.93;0.88;;;;;21.90;99928.00;;;;5066520;28;20048;-75
2022/01/03 05:01:39;;;;;;;0.10;0.10;;;;;21.80;99921.00;;;;5050414;28;20052;-78
2022/01/03 05:04:09;;;;;;;0.25;0.25;;;;;21.90;99940.00;;;;5066348;28;20427;-76
2022/01/03 05:06:39;;;;;;;0.00;0.00;;;;;21.80;99921.00;;;;5068206;28;20044;-78
2022/01/03 05:09:09;;;;;;;0.00;0.00;;;;;21.80;99923.00;;;;5066645;28;20048;-78
2022/01/03 05:11:39;;;;;;;0.00;0.00;;;;;21.80;99918.00;;;;5066445;28;20044;-75
2022/01/03 05:14:09;;;;;;;0.00;0.00;;;;;21.70;99931.00;;;;5066174;28;20515;-78
2022/01/03 05:16:38;;;;;;;0.00;0.00;;;;;21.80;99915.00;;;;5067328;28;20049;-75
2022/01/03 05:19:08;;;;;;;0.00;0.00;;;;;21.80;99935.00;;;;5066397;28;20048;-79
2022/01/03 05:21:38;;;;;;;0.00;0.00;;;;;21.80;99916.00;;;;5066543;28;20052;-76
2022/01/03 05:24:08;;;;;;;0.00;0.00;;;;;21.90;99916.00;;;;5066547;28;20501;-78
2022/01/03 05:26:38;;;;;;;0.00;0.00;;;;;21.90;99916.00;;;;5067314;28;20041;-78
2022/01/03 05:29:07;;;;;;;0.15;0.15;;;;;21.90;99929.00;;;;5067725;28;20072;-76
2022/01/03 05:31:37;;;;;;;0.00;0.00;;;;;22.00;99931.00;;;;5066004;28;20084;-76
2022/01/03 05:34:07;;;;;;;0.00;0.00;;;;;22.00;99929.00;;;;5066353;28;20150;-77
2022/01/03 05:36:37;;;;;;;0.00;0.00;;;;;22.00;99898.00;;;;5066368;28;20415;-78
2022/01/03 05:39:06;;;;;;;0.00;0.00;;;;;22.00;99883.00;;;;5065898;28;20049;-76
2022/01/03 05:41:36;;;;;;;0.00;0.00;;;;;22.00;99902.00;;;;5065992;28;20511;-75
2022/01/03 05:44:08;;;;;;;0.00;0.00;;;;;21.90;99882.00;;;;5066232;28;20059;-76
2022/01/03 05:46:39;;;;;;;0.00;0.00;;;;;21.90;99889.00;;;;5065706;28;20593;-79
2022/01/03 05:49:11;;;;;;;0.00;0.00;;;;;21.80;99891.00;;;;5066257;28;20044;-74
2022/01/03 05:51:41;;;;;;;0.00;0.00;;;;;21.80;99887.00;;;;5065776;28;20048;-77
2022/01/03 05:54:11;;;;;;;0.00;0.00;;;;;21.80;99904.00;;;;5066132;28;20040;-78
2022/01/03 05:56:41;;;;;;;0.00;0.00;;;;;21.80;99877.00;;;;5065770;28;20469;-75
2022/01/03 05:59:11;;;;;;;0.00;0.00;;;;;21.80;99877.00;;;;5065292;28;20056;-77
2022/01/03 06:01:42;;;;;;;0.00;0.00;;;;;21.80;99885.00;;;;5049586;28;20107;-77
2022/01/03 06:04:21;;;;;;;0.00;0.00;;;;;21.80;99880.00;;;;5066991;28;20109;-78
2022/01/03 06:07:00;;;;;;;0.00;0.00;;;;;21.90;99879.00;;;;5067362;28;20039;-76
2022/01/03 06:09:37;;;;;;;0.20;0.20;;;;;21.90;99868.00;;;;5065758;28;20067;-77
2022/01/03 06:12:09;;;;;;;0.00;0.00;;;;;21.80;99870.00;;;;5067898;28;20074;-77
2022/01/03 06:14:46;;;;;;;0.00;0.00;;;;;21.80;99879.00;;;;5064997;28;20179;-75
2022/01/03 06:17:17;;;;;;;0.00;0.00;;;;;21.80;99892.00;;;;5065231;28;20113;-74
2022/01/03 06:19:49;;;;;;;0.00;0.00;;;;;21.80;99890.00;;;;5065441;28;20446;-77
2022/01/03 06:22:19;;;;;;;0.10;0.10;;;;;21.90;99896.00;;;;5065431;28;20049;-75
2022/01/03 06:24:54;;;;;;;0.00;0.00;;;;;21.90;99896.00;;;;5049919;28;20373;-75
2022/01/03 06:27:24;;;;;;;0.00;0.00;;;;;22.00;99893.00;;;;5065449;28;20168;-75
2022/01/03 06:29:54;;;;;;;0.05;0.05;;;;;22.10;99889.00;;;;5065417;28;20075;-74
2022/01/03 06:32:23;;;;;;;0.13;0.10;;;;;22.00;99897.00;;;;5065254;28;20048;-76
2022/01/03 06:34:53;;;;;;;0.00;0.00;;;;;21.90;99903.00;;;;5065225;28;20048;-78
2022/01/03 06:37:23;;;;;;;0.00;0.00;;;;;21.80;99901.00;;;;5064621;28;20423;-74
2022/01/03 06:40:00;;;;;;;0.00;0.00;;;;;21.70;99922.00;;;;5065656;28;20086;-78
2022/01/03 06:42:30;;;;;;;0.00;0.00;;;;;21.70;99908.00;;;;5064970;28;20049;-76
2022/01/03 06:45:01;;;;;;;0.00;0.00;;;;;21.70;99927.00;;;;5065483;28;20055;-76
2022/01/03 06:47:31;;;;;;;0.00;0.00;;;;;21.80;99927.00;;;;5048875;28;20533;-77
2022/01/03 06:50:00;;;;;;;0.00;0.00;;;;;21.80;99937.00;;;;5066344;28;20139;-77
2022/01/03 06:52:32;;;;;;;0.10;0.10;;;;;21.80;99927.00;;;;5065161;28;20139;-78
2022/01/03 06:55:03;;;;;;;0.00;0.00;;;;;21.90;99938.00;;;;5065463;28;20098;-79
2022/01/03 06:57:32;;;;;;;0.00;0.00;;;;;21.90;99944.00;;;;5065155;28;20060;-77
2022/01/03 07:00:02;;;;;;;0.00;0.00;;;;;22.00;99920.00;;;;5065078;28;20122;-74
2022/01/03 07:02:32;;;;;;;0.05;0.05;;;;;22.00;99939.00;;;;5065163;28;20078;-76
2022/01/03 07:05:02;;;;;;;0.20;0.20;;;;;22.10;99953.00;;;;5065833;28;20067;-74
2022/01/03 07:07:31;;;;;;;0.00;0.00;;;;;22.00;99939.00;;;;5066723;28;20044;-78
2022/01/03 07:10:00;;;;;;;0.00;0.00;;;;;22.00;99934.00;;;;5066492;28;20040;-76
2022/01/03 07:12:30;;;;;;;0.10;0.10;;;;;22.00;99934.00;;;;5066971;28;20044;-77
2022/01/03 07:20:17;;;;;;;0.00;0.00;;;;;21.90;99957.00;;;;5066388;28;20087;-77
2022/01/03 07:22:47;;;;;;;0.00;0.00;;;;;22.00;99961.00;;;;5066055;28;20048;-76
2022/01/03 07:25:17;;;;;;;0.00;0.00;;;;;22.00;99977.00;;;;5064717;28;20422;-77
2022/01/03 07:27:47;;;;;;;0.00;0.00;;;;;22.00;99987.00;;;;5066202;28;20086;-76
2022/01/03 07:30:17;;;;;;;0.32;0.32;;;;;22.10;99976.00;;;;5067395;28;20045;-76
2022/01/03 07:32:47;;;;;;;0.40;0.40;;;;;22.10;99989.00;;;;5066489;28;20074;-77
2022/01/03 07:35:17;;;;;;;0.25;0.20;;;;;22.10;99981.00;;;;5067818;28;20398;-75
2022/01/03 07:37:46;;;;;;;0.00;0.00;;;;;22.10;99995.00;;;;5074096;28;20040;-75
2022/01/03 07:40:17;;;;;;;0.00;0.00;;;;;22.20;100010.00;;;;5071841;28;20483;-75
2022/01/03 07:42:46;;;;;;;0.08;0.03;;;;;22.20;99994.00;;;;5069821;28;20056;-78
2022/01/03 07:45:17;;;;;;;0.00;0.00;;;;;22.20;100006.00;;;;5069837;28;20115;-77
2022/01/03 07:47:48;;;;;;;0.00;0.00;;;;;22.20;100010.00;;;;5068905;28;20044;-75
2022/01/03 07:50:17;;;;;;;0.00;0.00;;;;;22.20;100013.00;;;;5073009;28;20045;-75
2022/01/03 07:52:47;;;;;;;0.00;0.00;;;;;22.20;100026.00;;;;5092314;28;20044;-75
2022/01/03 07:55:19;;;;;;;0.08;0.08;;;;;22.20;100006.00;;;;5091802;28;20064;-76
2022/01/03 07:57:49;;;;;;;0.00;0.00;;;;;22.30;100028.00;;;;5091037;28;20060;-77
2022/01/03 08:00:19;;;;;;;0.03;0.03;;;;;22.20;100019.00;;;;5091215;28;20032;-75
2022/01/03 08:02:48;;;;;;;0.00;0.00;;;;;22.30;100028.00;;;;5089870;28;20045;-78
2022/01/03 08:05:18;;;;;;;0.00;0.00;;;;;22.20;100042.00;;;;5093872;28;20056;-76
2022/01/03 08:07:47;;;;;;;0.00;0.00;;;;;22.20;100036.00;;;;5073948;28;20059;-77
2022/01/03 08:10:17;;;;;;;0.00;0.00;;;;;22.20;100053.00;;;;5068288;28;20061;-75
2022/01/03 08:12:47;;;;;;;0.00;0.00;;;;;22.10;100064.00;;;;5068995;28;20190;-74
2022/01/03 08:15:16;;;;;;;0.00;0.00;;;;;22.00;100059.00;;;;5069179;28;20526;-78
2022/01/03 08:17:46;;;;;;;0.00;0.00;;;;;21.90;100082.00;;;;5068722;28;20040;-78
2022/01/03 08:20:17;;;;;;;0.00;0.00;;;;;21.90;100074.00;;;;5068672;28;20044;-75
2022/01/03 08:22:47;;;;;;;0.00;0.00;;;;;21.90;100085.00;;;;5067850;28;20165;-77
2022/01/03 08:25:17;;;;;;;0.00;0.00;;;;;21.90;100091.00;;;;5068406;28;20040;-78
2022/01/03 08:27:46;;;;;;;0.00;0.00;;;;;21.80;100086.00;;;;5069124;28;20154;-74
2022/01/03 08:30:16;;;;;;;0.00;0.00;;;;;21.80;100079.00;;;;5068471;28;20068;-76
2022/01/03 08:32:47;;;;;;;0.00;0.00;;;;;21.80;100083.00;;;;5067417;28;20059;-75
2022/01/03 08:35:16;;;;;;;0.00;0.00;;;;;21.80;100065.00;;;;5068174;28;20048;-76
2022/01/03 08:37:47;;;;;;;0.03;0.03;;;;;21.90;100075.00;;;;5069084;28;20442;-77
2022/01/03 08:40:17;;;;;;;0.00;0.00;;;;;22.00;100076.00;;;;5069134;28;20049;-75
2022/01/03 08:42:47;;;;;;;0.00;0.00;;;;;22.10;100094.00;;;;5068766;28;20483;-77
2022/01/03 08:45:17;;;;;;;0.00;0.00;;;;;22.10;100093.00;;;;5068368;28;20040;-75
2022/01/03 08:47:47;;;;;;;0.00;0.00;;;;;22.10;100085.00;;;;5068450;28;20139;-75
2022/01/03 08:50:18;;;;;;;0.08;0.08;;;;;22.20;100099.00;;;;5067291;28;20037;-74
2022/01/03 08:52:48;;;;;;;0.00;0.00;;;;;22.20;100074.00;;;;5068466;28;20044;-73
2022/01/03 08:55:20;;;;;;;0.40;0.30;;;;;22.20;100078.00;;;;5068909;28;20102;-74
2022/01/03 08:57:51;;;;;;;0.10;0.10;;;;;22.20;100083.00;;;;5068782;28;20720;-74
2022/01/03 09:00:20;;;;;;;1.97;1.50;;;;;22.20;100082.00;;;;5068312;28;20743;-74
2022/01/03 09:02:50;;;;;;;0.00;0.00;;;;;22.20;100099.00;;;;5068412;28;20044;-78
2022/01/03 09:05:19;;;;;;;0.00;0.00;;;;;22.20;100098.00;;;;5068370;28;20040;-74
2022/01/03 09:07:48;;;;;;;0.00;0.00;;;;;22.30;100093.00;;;;5067700;28;20048;-76
2022/01/03 09:10:18;;;;;;;0.00;0.00;;;;;22.30;100116.00;;;;5067849;28;20044;-77
2022/01/03 09:12:48;;;;;;;0.00;0.00;;;;;22.40;100108.00;;;;5067893;28;20466;-75
2022/01/03 09:15:18;;;;;;;0.00;0.00;;;;;22.40;100110.00;;;;5068454;28;20045;-75
2022/01/03 09:17:48;;;;;;;0.25;0.25;;;;;22.50;100102.00;;;;5066787;28;20060;-76
2022/01/03 09:20:17;;;;;;;0.00;0.00;;;;;22.50;100108.00;;;;5067835;28;20040;-78
2022/01/03 09:22:49;;;;;;;0.00;0.00;;;;;22.50;100118.00;;;;5068216;28;20048;-79
2022/01/03 09:30:57;;;;;;;0.00;0.00;;;;;22.50;100103.00;;;;5066423;28;20048;-75
2022/01/03 09:33:26;;;;;;;0.00;0.00;;;;;22.60;100117.00;;;;5067608;28;20783;-78
2022/01/03 09:35:56;;;;;;;0.00;0.00;;;;;22.70;100114.00;;;;5067561;28;20048;-77
2022/01/03 09:38:25;;;;;;;0.00;0.00;;;;;22.80;100116.00;;;;5067538;28;20046;-78
2022/01/03 09:41:01;;;;;;;0.00;0.00;;;;;22.90;100142.00;;;;5067404;28;20071;-75
2022/01/03 09:43:42;;;;;;;0.00;0.00;;;;;23.00;100139.00;;;;5068308;28;20040;-77
2022/01/03 09:46:13;;;;;;;0.00;0.00;;;;;23.00;100137.00;;;;5067896;28;20121;-76
2022/01/03 09:48:51;;;;;;;0.20;0.13;;;;;23.20;100131.00;;;;5067645;28;20507;-77
2022/01/03 09:51:31;;;;;;;0.00;0.00;;;;;23.30;100134.00;;;;5067867;28;20135;-78
2022/01/03 09:54:04;;;;;;;0.00;0.00;;;;;23.50;100134.00;;;;5067228;28;20041;-78
2022/01/03 09:56:36;;;;;;;0.00;0.00;;;;;23.60;100111.00;;;;5067541;28;20056;-74
2022/01/03 09:59:08;;;;;;;0.00;0.00;;;;;23.70;100113.00;;;;5067617;28;20511;-76
2022/01/03 10:01:42;;;;;;;0.00;0.00;;;;;23.80;100107.00;;;;5067300;28;20102;-75
2022/01/03 10:04:14;;;;;;;0.00;0.00;;;;;24.00;100100.00;;;;5067542;28;20044;-76
2022/01/03 10:06:44;;;;;;;0.00;0.00;;;;;24.00;100104.00;;;;5067583;28;20048;-74
2022/01/03 10:09:15;;;;;;;0.00;0.00;;;;;24.20;100112.00;;;;5067269;28;20076;-77
2022/01/03 10:11:44;;;;;;;0.00;0.00;;;;;24.20;100106.00;;;;5067381;28;20082;-75
2022/01/03 10:14:15;;;;;;;0.00;0.00;;;;;24.50;100089.00;;;;5066885;28;20040;-76
2022/01/03 10:16:46;;;;;;;0.00;0.00;;;;;24.90;100077.00;;;;5066022;28;20036;-76
2022/01/03 10:19:25;;;;;;;0.00;0.00;;;;;25.00;100087.00;;;;5067069;28;20400;-76
2022/01/03 10:21:55;;;;;;;0.00;0.00;;;;;25.10;100084.00;;;;5066810;28;20063;-78
2022/01/03 10:24:36;;;;;;;0.00;0.00;;;;;25.00;100084.00;;;;5066506;28;20624;-77
2022/01/03 10:27:06;;;;;;;0.00;0.00;;;;;25.10;100098.00;;;;5066121;28;20554;-76
2022/01/03 10:29:40;;;;;;;0.00;0.00;;;;;25.20;100107.00;;;;5066853;28;20029;-78
2022/01/03 10:32:12;;;;;;;0.00;0.00;;;;;25.10;100114.00;;;;5065352;28;20059;-76
2022/01/03 10:34:41;;;;;;;0.00;0.00;;;;;25.30;100132.00;;;;5066739;28;20391;-78
2022/01/03 10:37:13;;;;;;;0.15;0.15;;;;;25.50;100122.00;;;;5063346;28;20055;-77
2022/01/03 10:39:42;;;;;;;0.00;0.00;;;;;25.70;100115.00;;;;5067009;28;20403;-77
2022/01/03 10:42:19;;;;;;;0.00;0.00;;;;;26.00;100121.00;;;;5066728;28;20048;-75
2022/01/03 10:44:49;;;;;;;1.45;0.45;;;;;26.30;100104.00;;;;5066112;28;21044;-76
2022/01/03 10:47:46;;;;;;;0.03;0.03;;;;;26.40;100113.00;;;;5065845;28;20453;-74
2022/01/03 10:50:19;;;;;;;0.20;0.20;;;;;26.30;100119.00;;;;5065625;28;20132;-78
2022/01/03 10:52:49;;;;;;;0.00;0.00;;;;;26.30;100096.00;;;;5066403;28;20045;-77
2022/01/03 10:55:34;;;;;;;0.20;0.20;;;;;26.40;100093.00;;;;5065712;28;20428;-76
2022/01/03 10:58:06;;;;;;;0.10;0.10;;;;;26.60;100084.00;;;;5063792;28;20101;-78
2022/01/03 11:00:41;;;;;;;0.00;0.00;;;;;26.80;100084.00;;;;5066100;28;20388;-76
2022/01/03 11:03:37;;;;;;;0.00;0.00;;;;;27.00;100105.00;;;;5066273;28;20049;-77
2022/01/03 11:06:22;;;;;;;0.00;0.00;;;;;26.80;100121.00;;;;5065933;28;20048;-78
2022/01/03 11:11:47;;;;;;;0.47;0.35;;;;;26.30;100121.00;;;;5067186;28;20040;-75
2022/01/03 11:14:42;;;;;;;0.03;0.03;;;;;26.40;100121.00;;;;5066322;28;20515;-75
2022/01/03 11:17:27;;;;;;;0.00;0.00;;;;;26.60;100103.00;;;;5066435;28;20518;-76
2022/01/03 11:20:00;;;;;;;0.10;0.10;;;;;26.70;100109.00;;;;5064938;28;20151;-75
2022/01/03 11:22:38;;;;;;;0.00;0.00;;;;;26.80;100135.00;;;;5065863;28;20052;-76
2022/01/03 11:25:10;;;;;;;0.00;0.00;;;;;26.50;100129.00;;;;5063389;28;20037;-75
2022/01/03 11:27:40;;;;;;;0.00;0.00;;;;;26.50;100125.00;;;;5063345;28;20503;-74
2022/01/03 11:30:12;;;;;;;0.00;0.00;;;;;27.30;100100.00;;;;5064663;28;20058;-75
2022/01/03 11:32:44;;;;;;;0.00;0.00;;;;;28.40;100061.00;;;;5065704;28;20531;-75
2022/01/03 11:35:14;;;;;;;0.00;0.00;;;;;28.90;100066.00;;;;5066071;28;20083;-76
2022/01/03 11:37:46;;;;;;;0.10;0.10;;;;;29.10;100045.00;;;;5066118;28;20753;-76
2022/01/03 11:40:17;;;;;;;0.00;0.00;;;;;30.40;100008.00;;;;5068647;28;20048;-76
2022/01/03 11:42:48;;;;;;;0.00;0.00;;;;;31.30;100025.00;;;;5068962;28;20044;-76
2022/01/03 11:45:18;;;;;;;0.00;0.00;;;;;30.10;100098.00;;;;5069689;28;20500;-75
2022/01/03 11:47:49;;;;;;;2.72;0.38;;;;;28.60;100112.00;;;;5069737;28;20285;-75
2022/01/03 11:50:19;;;;;;;0.00;0.00;;;;;27.80;100118.00;;;;5069089;28;20044;-75
2022/01/03 11:52:49;;;;;;;0.33;0.33;;;;;27.70;100120.00;;;;5069460;28;20052;-77
2022/01/03 11:55:24;;;;;;;0.00;0.00;;;;;27.40;100135.00;;;;5069453;28;20048;-77
2022/01/03 11:58:26;;;;;;;0.00;0.00;;;;;27.60;100124.00;;;;5070060;28;20461;-75
2022/01/03 12:04:14;;;;;;;0.32;0.30;;;;;28.60;100111.00;;;;5047168;28;20095;-74
2022/01/03 12:06:45;;;;;;;0.17;0.17;;;;;28.70;100106.00;;;;5066557;28;20049;-75
2022/01/03 12:09:18;;;;;;;0.00;0.00;;;;;28.70;100122.00;;;;5068291;28;20044;-77
2022/01/03 12:11:54;;;;;;;0.00;0.00;;;;;28.30;100121.00;;;;5069122;28;20049;-76
2022/01/03 12:14:43;;;;;;;0.08;0.08;;;;;28.50;100075.00;;;;5068740;28;20120;-74
2022/01/03 12:17:16;;;;;;;0.20;0.20;;;;;30.00;100083.00;;;;5069122;28;20036;-76
2022/01/03 12:19:47;;;;;;;0.00;0.00;;;;;30.20;100047.00;;;;5069061;28;20048;-77
2022/01/03 12:22:21;;;;;;;0.20;0.20;;;;;30.90;100054.00;;;;5069240;28;20068;-79
2022/01/03 12:25:02;;;;;;;0.20;0.20;;;;;30.90;100057.00;;;;5068833;28;20044;-77
2022/01/03 12:27:35;;;;;;;0.35;0.28;;;;;30.60;100095.00;;;;5067991;28;20060;-75
2022/01/03 12:30:13;;;;;;;0.70;0.38;;;;;31.30;100065.00;;;;5066809;28;20423;-79
2022/01/03 12:33:05;;;;;;;0.28;0.10;;;;;30.90;100048.00;;;;5067091;28;20048;-76
2022/01/03 12:35:43;;;;;;;0.17;0.17;;;;;30.70;100078.00;;;;5067080;28;20045;-75
2022/01/03 12:38:20;;;;;;;0.00;0.00;;;;;31.50;100039.00;;;;5068443;28;20133;-76
2022/01/03 12:40:53;;;;;;;0.00;0.00;;;;;32.30;100064.00;;;;5067240;28;20102;-78
2022/01/03 12:43:36;;;;;;;0.08;0.08;;;;;32.20;100085.00;;;;5069355;28;20123;-73
2022/01/03 12:46:15;;;;;;;522.42;68.10;;;;;32.00;100062.00;;;;5069412;28;20443;-75
2022/01/03 12:48:45;;;;;;;0.03;0.03;;;;;31.40;100060.00;;;;5068657;28;20049;-77
2022/01/03 12:51:16;;;;;;;0.00;0.00;;;;;31.30;100066.00;;;;5067879;28;20052;-75
2022/01/03 12:53:49;;;;;;;0.20;0.20;;;;;31.10;100065.00;;;;5068406;28;20032;-76
2022/01/03 12:56:26;;;;;;;0.55;0.20;;;;;30.90;100070.00;;;;5068643;28;20136;-76
2022/01/03 12:58:57;;;;;;;0.05;0.05;;;;;30.00;100087.00;;;;5068144;28;20036;-74